Time;durP1;ratioP1;P1;durP2;ratioP2;P2;SDS_P1;SDS_P2;PMS_P1;PMS_P2;Temp;Humidity;BMP_temperature;BMP_pressure;BME280_temperature;BME280_humidity;BME280_pressure;Samples;Min_cycle;Max_cycle;Signal;HPM_P1;HPM_P2
2022/01/25 00:28:23;;;;;;;;;58.00;44.75;;;;;7.09;57.89;102753.13;5116042;27;46376;-67
2022/01/25 00:33:33;;;;;;;;;57.50;43.00;;;;;6.82;58.06;102719.34;5119138;27;45357;-66
2022/01/25 00:36:02;;;;;;;;;64.75;47.50;;;;;6.57;58.04;102678.53;5108121;27;45317;-64
2022/01/25 00:38:28;;;;;;;;;64.50;46.00;;;;;6.93;57.89;102753.75;5119715;27;46212;-64
2022/01/25 00:40:53;;;;;;;;;57.00;45.50;;;;;6.99;58.30;102764.84;5102410;27;45537;-65
2022/01/25 00:43:23;;;;;;;;;51.00;39.25;;;;;6.80;58.23;102730.69;5118715;27;45397;-65
2022/01/25 00:45:52;;;;;;;;;60.75;45.00;;;;;7.01;58.11;102768.50;5097347;27;45399;-65
2022/01/25 00:48:18;;;;;;;;;61.50;45.50;;;;;7.02;58.30;102762.41;5096010;27;46201;-65
2022/01/25 00:50:45;;;;;;;;;64.25;45.00;;;;;7.04;58.29;102770.50;5093627;27;46336;-67
2022/01/25 00:55:54;;;;;;;;;60.00;44.75;;;;;6.87;58.20;102748.00;5116777;27;45461;-64
2022/01/25 00:58:20;;;;;;;;;64.00;45.25;;;;;6.84;58.49;102759.31;5115796;27;45538;-65
2022/01/25 01:00:45;;;;;;;;;64.00;51.00;;;;;6.93;58.24;102767.97;5108578;27;45567;-65
2022/01/25 01:03:10;;;;;;;;;66.50;48.50;;;;;6.87;58.38;102748.00;5115710;27;45573;-66
2022/01/25 01:05:38;;;;;;;;;58.25;48.75;;;;;6.87;58.34;102756.88;5116633;27;45489;-66
2022/01/25 01:08:03;;;;;;;;;58.50;49.25;;;;;6.83;58.17;102754.84;5116363;27;45647;-66
2022/01/25 01:10:29;;;;;;;;;56.25;46.75;;;;;6.82;58.09;102761.84;5119431;27;45868;-65
2022/01/25 01:15:37;;;;;;;;;68.00;52.00;;;;;6.68;58.11;102746.63;5110006;27;45515;-65
2022/01/25 01:40:43;;;;;;;;;79.00;54.00;;;;;5.98;58.15;102710.38;5114951;27;45954;-64
2022/01/25 01:47:49;;;;;;;;;65.75;47.00;;;;;5.52;57.33;102658.25;5110717;27;45409;-65
2022/01/25 01:50:26;;;;;;;;;66.25;50.50;;;;;6.15;57.73;102770.03;5116492;27;45271;-65
2022/01/25 01:52:52;;;;;;;;;70.00;53.25;;;;;6.06;57.47;102768.53;5105433;27;45342;-65
2022/01/25 01:55:19;;;;;;;;;67.50;50.00;;;;;6.03;57.94;102776.25;5105909;27;45393;-65
2022/01/25 01:57:46;;;;;;;;;63.50;47.75;;;;;6.02;57.29;102782.38;5103448;27;45360;-65
2022/01/25 02:00:12;;;;;;;;;60.00;45.75;;;;;5.73;58.17;102737.63;5096230;27;47085;-66
2022/01/25 02:02:38;;;;;;;;;62.00;48.50;;;;;5.96;58.27;102786.25;5096419;27;45502;-66
2022/01/25 02:05:04;;;;;;;;;58.75;48.00;;;;;5.93;57.90;102778.97;5095666;27;45514;-66
2022/01/25 02:07:29;;;;;;;;;64.50;48.25;;;;;5.83;57.87;102774.66;5099373;27;45585;-66
2022/01/25 02:09:55;;;;;;;;;60.25;45.50;;;;;5.83;57.63;102787.03;5100529;27;45622;-67
2022/01/25 02:12:20;;;;;;;;;68.00;47.25;;;;;5.74;57.97;102779.25;5108522;27;45529;-64
2022/01/25 02:14:47;;;;;;;;;56.75;45.50;;;;;5.76;57.70;102787.31;5102857;27;45525;-66
2022/01/25 02:22:25;;;;;;;;;62.75;46.25;;;;;5.59;58.07;102756.81;5103980;27;45605;-67
2022/01/25 02:23:00;;;;;;;;;60.00;46.75;;;;;5.75;57.55;102786.41;5121696;27;45399;-66
2022/01/25 02:25:26;;;;;;;;;54.25;40.50;;;;;5.45;58.19;102755.75;5119157;27;45342;-66
2022/01/25 02:27:51;;;;;;;;;39.75;38.00;;;;;5.36;58.20;102750.63;5106820;27;45395;-66
2022/01/25 02:30:17;;;;;;;;;60.50;44.00;;;;;5.53;58.40;102775.84;5063312;27;46105;-66
2022/01/25 02:32:43;;;;;;;;;53.25;41.00;;;;;5.24;58.31;102745.28;5099473;27;45448;-65
2022/01/25 02:35:10;;;;;;;;;59.75;43.50;;;;;5.42;58.47;102782.94;5108643;27;45243;-66
2022/01/25 02:37:38;;;;;;;;;64.00;43.00;;;;;5.34;58.58;102763.75;5123799;27;45397;-65
2022/01/25 02:40:04;;;;;;;;;60.00;42.00;;;;;5.44;58.93;102793.66;5120865;27;45501;-65
2022/01/25 02:42:30;;;;;;;;;52.00;40.50;;;;;5.30;58.73;102776.66;5117703;27;45457;-64
2022/01/25 02:44:55;;;;;;;;;35.50;26.00;;;;;5.36;58.94;102790.38;5100043;27;45870;-66
2022/01/25 02:50:05;;;;;;;;;52.00;41.00;;;;;5.30;58.81;102789.91;5099204;27;45405;-65
2022/01/25 02:52:31;;;;;;;;;44.75;38.25;;;;;5.15;59.05;102785.22;5106114;27;45631;-66
2022/01/25 02:54:57;;;;;;;;;50.75;41.50;;;;;5.09;59.58;102781.13;5098514;27;45592;-64
2022/01/25 02:57:23;;;;;;;;;50.50;40.50;;;;;5.11;59.52;102803.38;5118126;27;45344;-67
2022/01/25 02:59:49;;;;;;;;;53.50;39.00;;;;;5.05;60.05;102786.97;5119613;27;46279;-65
2022/01/25 03:02:14;;;;;;;;;50.50;40.00;;;;;5.04;59.90;102788.69;5127983;27;45290;-66
2022/01/25 03:04:40;;;;;;;;;56.00;39.75;;;;;4.85;60.46;102762.44;5099127;27;45505;-65
2022/01/25 03:07:07;;;;;;;;;50.50;40.25;;;;;5.04;60.07;102787.78;5098839;27;45394;-64
2022/01/25 03:09:32;;;;;;;;;44.00;38.00;;;;;5.06;59.97;102788.84;5104914;27;45556;-65
2022/01/25 03:12:00;;;;;;;;;43.75;38.00;;;;;4.99;60.43;102793.63;5096550;27;45435;-65
2022/01/25 03:14:30;;;;;;;;;50.25;40.50;;;;;4.98;59.92;102793.50;5099552;27;45418;-66
2022/01/25 03:21:54;;;;;;;;;47.50;41.00;;;;;4.99;60.38;102790.97;5097392;27;45425;-65
2022/01/25 03:24:21;;;;;;;;;52.25;38.75;;;;;4.94;60.52;102787.03;5085919;27;45555;-65
2022/01/25 03:26:46;;;;;;;;;53.25;41.50;;;;;4.94;60.74;102788.75;5098214;27;45507;-65
2022/01/25 03:29:12;;;;;;;;;48.25;37.50;;;;;4.87;60.83;102767.88;5097070;27;46227;-66
2022/01/25 03:31:37;;;;;;;;;43.25;39.00;;;;;4.85;60.58;102782.69;5097293;27;45436;-66
2022/01/25 03:34:03;;;;;;;;;47.00;38.75;;;;;4.62;60.92;102734.09;5102224;27;45759;-64
2022/01/25 03:36:28;;;;;;;;;47.75;37.75;;;;;4.80;60.63;102761.13;5097276;27;45416;-65
2022/01/25 03:38:54;;;;;;;;;55.50;38.00;;;;;4.75;60.67;102749.22;5097365;27;45328;-65
2022/01/25 03:41:23;;;;;;;;;45.75;37.75;;;;;4.80;61.21;102777.97;5097063;27;45760;-67
2022/01/25 03:43:53;;;;;;;;;41.25;36.25;;;;;4.58;60.68;102732.88;5100663;27;45448;-65
2022/01/25 03:51:40;;;;;;;;;48.75;39.25;;;;;4.76;60.45;102754.66;5096752;27;45494;-65
2022/01/25 03:54:06;;;;;;;;;48.00;39.00;;;;;4.59;60.56;102744.41;5103975;27;45427;-66
2022/01/25 03:56:31;;;;;;;;;40.00;34.00;;;;;4.54;61.15;102728.16;5106769;27;45491;-67
2022/01/25 03:58:57;;;;;;;;;44.00;38.25;;;;;4.60;61.04;102738.31;5106989;27;45393;-65
2022/01/25 04:01:23;;;;;;;;;45.00;39.25;;;;;4.56;61.03;102753.00;5097142;27;45397;-65
2022/01/25 04:03:58;;;;;;;;;48.75;40.00;;;;;4.63;61.49;102764.13;5099176;27;45503;-66
2022/01/25 04:06:25;;;;;;;;;55.25;37.00;;;;;4.60;61.63;102768.38;5096953;27;45482;-67
2022/01/25 04:08:50;;;;;;;;;54.50;35.50;;;;;4.59;61.62;102766.50;5096873;27;46370;-64
2022/01/25 04:11:16;;;;;;;;;50.50;36.75;;;;;4.53;61.33;102763.34;5104197;27;45459;-65
2022/01/25 04:13:41;;;;;;;;;63.50;40.75;;;;;4.53;62.12;102768.63;5114316;27;45538;-66
2022/01/25 04:16:15;;;;;;;;;47.25;37.00;;;;;4.51;61.53;102777.25;5112395;27;45594;-64
2022/01/25 04:26:43;;;;;;;;;52.25;40.25;;;;;4.69;61.77;102767.28;5097686;27;45750;-66
2022/01/25 04:29:08;;;;;;;;;57.75;38.50;;;;;4.75;61.71;102776.66;5117351;27;45729;-64
2022/01/25 04:31:35;;;;;;;;;46.25;38.25;;;;;4.79;61.55;102775.19;5102086;27;45294;-67
2022/01/25 04:50:26;;;;;;;;;42.25;35.00;;;;;4.71;60.93;102785.13;5104032;27;45982;-66
2022/01/25 04:53:03;;;;;;;;;49.75;36.50;;;;;4.66;60.62;102781.19;5115927;27;45500;-67
2022/01/25 04:55:37;;;;;;;;;46.50;37.50;;;;;4.55;60.50;102751.19;5123597;27;45639;-65
2022/01/25 04:58:10;;;;;;;;;55.25;38.00;;;;;4.74;60.70;102785.38;5113763;27;45425;-67
2022/01/25 05:00:35;;;;;;;;;47.00;38.50;;;;;4.67;61.48;102787.38;5102209;27;45295;-68
2022/01/25 05:03:14;;;;;;;;;50.00;38.25;;;;;4.72;61.21;102786.03;5095786;27;45464;-67
2022/01/25 05:05:56;;;;;;;;;38.00;29.25;;;;;4.76;61.64;102785.53;5109219;27;45430;-65
2022/01/25 05:08:33;;;;;;;;;55.25;42.50;;;;;4.80;60.82;102785.91;5096768;27;45390;-65
2022/01/25 05:11:44;;;;;;;;;42.00;35.75;;;;;4.22;61.29;102681.44;5097460;27;46514;-68
2022/01/25 05:13:55;;;;;;;;;60.00;43.00;;;;;4.72;61.13;102775.44;5091033;27;45436;-66
2022/01/25 05:16:32;;;;;;;;;56.50;39.00;;;;;4.66;61.40;102767.03;5102456;27;45408;-65
2022/01/25 05:24:18;;;;;;;;;62.25;41.25;;;;;4.72;61.59;102776.41;5115012;27;45475;-66
2022/01/25 05:26:44;;;;;;;;;57.75;43.75;;;;;4.82;60.56;102777.13;5106168;27;45810;-65
2022/01/25 05:29:09;;;;;;;;;48.50;39.75;;;;;4.84;61.11;102784.44;5102063;27;45565;-65
2022/01/25 05:31:36;;;;;;;;;50.25;39.00;;;;;4.85;60.68;102788.94;5117867;27;45309;-65
2022/01/25 05:34:02;;;;;;;;;46.50;40.00;;;;;4.66;60.76;102761.72;5102768;27;45295;-66
2022/01/25 05:36:27;;;;;;;;;61.00;40.00;;;;;4.83;61.10;102785.22;5097678;27;45416;-65
2022/01/25 05:38:56;;;;;;;;;51.25;43.25;;;;;4.87;60.57;102789.97;5079173;27;45402;-67
2022/01/25 05:41:26;;;;;;;;;55.50;41.00;;;;;4.76;60.61;102786.44;5098703;27;46271;-65
2022/01/25 05:46:44;;;;;;;;;58.00;41.00;;;;;4.57;60.83;102744.28;5106203;27;45634;-65
2022/01/25 05:49:09;;;;;;;;;54.00;39.75;;;;;4.83;60.95;102790.50;5100969;27;45660;-65
2022/01/25 05:51:34;;;;;;;;;46.25;38.25;;;;;4.65;60.86;102765.16;5100228;27;47732;-67
2022/01/25 05:53:59;;;;;;;;;54.50;39.25;;;;;4.64;61.00;102771.25;5099228;27;45367;-64
2022/01/25 05:56:25;;;;;;;;;52.25;42.00;;;;;4.75;61.33;102781.94;5103185;27;45523;-67
2022/01/25 05:58:50;;;;;;;;;49.25;40.25;;;;;4.86;61.75;102790.75;5098915;27;45523;-65
2022/01/25 06:01:18;;;;;;;;;46.50;37.75;;;;;4.33;61.03;102692.88;5101141;27;46332;-65
2022/01/25 06:03:45;;;;;;;;;53.00;40.75;;;;;4.95;60.38;102785.28;5081694;27;45530;-67
2022/01/25 06:06:10;;;;;;;;;59.00;43.00;;;;;4.88;61.40;102778.56;5100129;27;45380;-66
2022/01/25 06:08:36;;;;;;;;;56.00;38.75;;;;;4.73;60.97;102740.25;5116995;27;45319;-66
2022/01/25 06:11:01;;;;;;;;;57.00;40.25;;;;;4.86;60.93;102772.22;5107121;27;45295;-65
2022/01/25 06:13:26;;;;;;;;;58.25;40.50;;;;;5.03;60.69;102780.63;5112275;27;44958;-65
2022/01/25 06:15:52;;;;;;;;;43.75;37.25;;;;;5.06;61.55;102781.78;5117407;27;45411;-67
2022/01/25 06:18:17;;;;;;;;;42.25;37.75;;;;;4.99;61.06;102752.97;5113153;27;46180;-67
2022/01/25 06:20:42;;;;;;;;;53.50;38.00;;;;;4.91;60.62;102738.19;5111112;27;45616;-68
2022/01/25 06:23:08;;;;;;;;;54.75;40.50;;;;;5.21;61.23;102790.06;5107282;27;45472;-69
2022/01/25 06:25:34;;;;;;;;;59.75;45.25;;;;;5.24;61.35;102789.41;5104235;27;45449;-67
2022/01/25 06:28:00;;;;;;;;;52.75;41.25;;;;;4.91;60.51;102720.56;5098749;27;45501;-66
2022/01/25 06:30:25;;;;;;;;;59.50;41.50;;;;;5.28;60.43;102767.63;5098141;27;45605;-67
2022/01/25 06:32:51;;;;;;;;;81.50;57.75;;;;;5.31;60.19;102776.78;5097506;27;45797;-66
2022/01/25 06:35:17;;;;;;;;;59.75;44.00;;;;;5.42;60.66;102792.63;5108690;27;45416;-68
2022/01/25 06:37:44;;;;;;;;;61.75;45.50;;;;;5.39;60.54;102787.97;5113693;27;46582;-65
2022/01/25 06:40:09;;;;;;;;;65.50;45.25;;;;;5.31;60.37;102784.72;5124750;27;45264;-67
2022/01/25 06:42:36;;;;;;;;;70.25;51.25;;;;;5.30;61.07;102768.72;5123948;27;45157;-67
2022/01/25 06:45:11;;;;;;;;;66.50;48.00;;;;;5.40;61.43;102780.97;5117836;27;45096;-66
2022/01/25 06:47:37;;;;;;;;;58.50;42.25;;;;;4.90;60.55;102691.28;5126883;27;45073;-66
2022/01/25 06:50:03;;;;;;;;;54.75;39.50;;;;;5.29;60.83;102753.59;5115501;27;44993;-66
2022/01/25 06:52:28;;;;;;;;;50.50;37.25;;;;;5.40;60.80;102773.94;5121031;27;45150;-68
2022/01/25 06:54:54;;;;;;;;;61.50;48.25;;;;;5.22;60.18;102743.31;5113655;27;45141;-68
2022/01/25 06:57:19;;;;;;;;;57.75;45.25;;;;;5.49;60.48;102779.03;5124486;27;45309;-66
2022/01/25 06:59:44;;;;;;;;;70.00;52.00;;;;;5.43;61.38;102779.50;5116235;27;45025;-67
2022/01/25 07:02:12;;;;;;;;;59.75;47.00;;;;;5.19;61.23;102746.63;5119207;27;45136;-67
2022/01/25 07:04:38;;;;;;;;;65.75;49.25;;;;;5.44;61.11;102780.41;5108575;27;45462;-65
2022/01/25 07:07:03;;;;;;;;;60.00;46.25;;;;;5.40;61.16;102776.59;5102272;27;45469;-67
2022/01/25 07:09:29;;;;;;;;;63.50;46.75;;;;;5.50;61.47;102781.81;5096936;27;45521;-65
2022/01/25 07:11:54;;;;;;;;;69.75;52.50;;;;;5.39;61.37;102763.22;5107277;27;45348;-67
2022/01/25 07:14:19;;;;;;;;;68.00;52.25;;;;;5.27;61.00;102749.91;5099590;27;45951;-66
2022/01/25 07:16:46;;;;;;;;;61.75;48.50;;;;;5.49;61.07;102779.03;5105031;27;45712;-67
2022/01/25 07:19:12;;;;;;;;;65.00;49.50;;;;;5.36;61.45;102769.16;5097988;27;46214;-67
2022/01/25 07:21:37;;;;;;;;;65.25;49.00;;;;;5.49;61.31;102782.63;5106416;27;45531;-67
2022/01/25 07:24:03;;;;;;;;;86.75;64.00;;;;;5.48;61.09;102796.69;5104069;27;45621;-67
2022/01/25 07:26:29;;;;;;;;;65.25;48.50;;;;;5.47;61.29;102797.47;5105004;27;45451;-67
2022/01/25 07:28:54;;;;;;;;;68.75;44.25;;;;;5.47;60.82;102793.91;5108593;27;45449;-66
2022/01/25 07:31:21;;;;;;;;;62.50;48.25;;;;;5.50;60.92;102794.16;5096603;27;45318;-67
2022/01/25 07:33:46;;;;;;;;;63.25;49.25;;;;;5.44;61.13;102783.06;5078076;27;45318;-67
2022/01/25 07:36:12;;;;;;;;;67.75;49.00;;;;;5.50;61.56;102803.03;5097265;27;45660;-67
2022/01/25 07:38:37;;;;;;;;;55.50;43.25;;;;;5.52;61.18;102808.44;5096710;27;46116;-68
2022/01/25 07:41:03;;;;;;;;;66.50;49.50;;;;;4.99;61.16;102732.69;5097843;27;45381;-67
2022/01/25 07:43:28;;;;;;;;;72.75;52.25;;;;;5.35;61.98;102807.09;5096636;27;45466;-68
2022/01/25 07:45:54;;;;;;;;;68.00;52.50;;;;;5.43;61.21;102805.03;5097470;27;45392;-66
2022/01/25 07:48:21;;;;;;;;;73.25;53.50;;;;;5.44;61.70;102815.78;5096476;27;46199;-66
2022/01/25 07:50:47;;;;;;;;;76.75;52.25;;;;;5.28;61.48;102783.53;5096566;27;45509;-66
2022/01/25 07:53:13;;;;;;;;;64.00;48.50;;;;;5.35;61.34;102799.16;5096675;27;45310;-68
2022/01/25 07:55:38;;;;;;;;;52.50;42.25;;;;;5.50;61.76;102823.31;5096223;27;45460;-66
2022/01/25 07:58:04;;;;;;;;;60.75;46.50;;;;;5.24;61.26;102760.25;5096444;27;45592;-66
2022/01/25 08:00:30;;;;;;;;;69.50;48.25;;;;;5.61;61.36;102824.16;5096578;27;45447;-66
2022/01/25 08:02:55;;;;;;;;;42.00;28.75;;;;;5.61;61.25;102824.16;5095458;27;45293;-67
2022/01/25 08:05:24;;;;;;;;;64.75;50.00;;;;;5.53;60.61;102799.69;5095907;27;45566;-68
2022/01/25 08:07:53;;;;;;;;;72.50;52.00;;;;;5.52;61.06;102789.88;5116053;27;45516;-67
2022/01/25 08:10:18;;;;;;;;;57.00;44.00;;;;;5.24;61.00;102739.97;5116097;27;45440;-67
2022/01/25 08:12:44;;;;;;;;;80.00;58.50;;;;;5.62;61.42;102805.72;5115834;27;45556;-69
2022/01/25 08:15:10;;;;;;;;;71.50;53.50;;;;;5.57;61.26;102795.56;5116168;27;45379;-70
2022/01/25 08:17:36;;;;;;;;;76.00;56.25;;;;;5.73;60.94;102820.75;5115796;27;46222;-66
2022/01/25 08:20:02;;;;;;;;;70.25;54.00;;;;;5.74;60.84;102826.97;5115688;27;45409;-67
2022/01/25 08:22:28;;;;;;;;;75.75;54.25;;;;;5.54;61.64;102801.53;5115659;27;45427;-67
2022/01/25 08:24:53;;;;;;;;;68.50;51.50;;;;;5.51;61.38;102799.56;5115911;27;45430;-67
2022/01/25 08:27:22;;;;;;;;;69.00;52.75;;;;;5.44;60.90;102777.75;5111063;27;46840;-66
2022/01/25 08:29:48;;;;;;;;;83.75;61.50;;;;;5.87;60.49;102844.81;5107306;27;45543;-67
2022/01/25 08:32:13;;;;;;;;;111.00;89.50;;;;;5.94;60.50;102840.91;5114987;27;45498;-66
2022/01/25 08:34:39;;;;;;;;;78.00;57.00;;;;;6.01;60.14;102837.97;5103161;27;45487;-67
2022/01/25 08:37:05;;;;;;;;;71.00;54.25;;;;;5.68;60.68;102784.09;5107585;27;45509;-68
2022/01/25 08:39:31;;;;;;;;;71.75;51.50;;;;;5.56;60.44;102778.75;5109304;27;45445;-67
2022/01/25 08:41:56;;;;;;;;;71.25;54.00;;;;;5.95;60.44;102827.75;5114839;27;45454;-67
2022/01/25 08:44:22;;;;;;;;;66.50;50.50;;;;;6.09;60.49;102843.06;5102203;27;45518;-65
2022/01/25 08:46:47;;;;;;;;;69.00;51.50;;;;;6.13;60.15;102832.72;5107330;27;46026;-66
2022/01/25 08:49:13;;;;;;;;;65.00;49.25;;;;;6.13;59.73;102835.34;5114243;27;45536;-67
2022/01/25 08:51:39;;;;;;;;;69.25;49.50;;;;;6.13;60.38;102824.75;5113547;27;45421;-65
2022/01/25 08:54:05;;;;;;;;;75.75;55.25;;;;;6.18;60.71;102834.91;5100639;27;45511;-67
2022/01/25 08:56:30;;;;;;;;;72.75;54.00;;;;;6.13;59.70;102814.13;5109899;27;46665;-67
2022/01/25 08:58:56;;;;;;;;;71.00;51.50;;;;;6.28;60.06;102847.16;5112453;27;45531;-68
2022/01/25 09:01:21;;;;;;;;;75.00;55.25;;;;;6.31;60.04;102841.19;5101182;27;45399;-67
2022/01/25 09:03:47;;;;;;;;;70.50;49.25;;;;;5.98;59.93;102785.59;5101243;27;45384;-68
2022/01/25 09:06:12;;;;;;;;;69.50;48.75;;;;;6.35;60.42;102843.25;5107053;27;46303;-67
2022/01/25 09:08:38;;;;;;;;;61.25;46.75;;;;;6.41;60.22;102841.06;5111886;27;45365;-69
2022/01/25 09:11:05;;;;;;;;;65.25;50.75;;;;;6.46;59.74;102835.28;5114430;27;45489;-68
2022/01/25 09:13:31;;;;;;;;;77.50;52.25;;;;;6.40;59.56;102823.28;5104975;27;45668;-66
2022/01/25 09:15:58;;;;;;;;;68.75;51.00;;;;;6.39;59.53;102833.00;5106922;27;46504;-66
2022/01/25 09:18:23;;;;;;;;;59.75;48.25;;;;;6.16;59.87;102823.25;5109675;27;45507;-66
2022/01/25 09:20:49;;;;;;;;;63.75;46.50;;;;;6.28;59.81;102840.09;5114419;27;45536;-66
2022/01/25 09:23:19;;;;;;;;;74.50;55.00;;;;;6.20;60.25;102850.94;5101747;27;45412;-68
2022/01/25 09:25:47;;;;;;;;;60.75;41.25;;;;;6.14;60.30;102851.41;5106148;27;46409;-67
2022/01/25 09:28:13;;;;;;;;;62.50;48.50;;;;;6.15;60.00;102854.97;5109293;27;45630;-67
2022/01/25 09:30:39;;;;;;;;;69.75;49.25;;;;;6.05;60.15;102861.28;5106513;27;45577;-67
2022/01/25 09:33:04;;;;;;;;;68.50;46.25;;;;;6.00;60.69;102860.00;5105708;27;45424;-68
2022/01/25 09:35:31;;;;;;;;;65.50;49.00;;;;;5.94;61.18;102857.78;5102350;27;46378;-67
2022/01/25 09:37:57;;;;;;;;;64.75;50.00;;;;;5.68;60.86;102827.44;5108501;27;45426;-67
2022/01/25 09:40:22;;;;;;;;;61.75;47.00;;;;;5.94;61.22;102870.09;5113447;27;45469;-66
2022/01/25 09:42:51;;;;;;;;;65.75;47.50;;;;;5.89;61.29;102862.69;5106409;27;45602;-67
2022/01/25 09:45:18;;;;;;;;;69.00;49.75;;;;;5.86;61.43;102869.50;5105940;27;46107;-67
2022/01/25 09:47:45;;;;;;;;;73.75;51.75;;;;;5.93;61.55;102862.94;5111776;27;45389;-67
2022/01/25 09:50:11;;;;;;;;;75.25;55.50;;;;;5.81;61.25;102849.66;5085253;27;45496;-68
2022/01/25 09:52:39;;;;;;;;;63.00;49.00;;;;;5.97;61.43;102865.97;5099835;27;45374;-67
2022/01/25 09:55:10;;;;;;;;;72.75;53.50;;;;;6.04;61.10;102868.34;5104867;27;46365;-66
2022/01/25 09:57:40;;;;;;;;;72.50;51.25;;;;;6.05;60.92;102859.53;5106171;27;45395;-68
2022/01/25 10:00:08;;;;;;;;;63.50;50.25;;;;;6.13;60.70;102875.16;5082941;27;45473;-68
2022/01/25 10:02:37;;;;;;;;;66.75;50.25;;;;;6.12;60.81;102876.91;5105865;27;45498;-67
2022/01/25 10:05:30;;;;;;;;;70.50;50.50;;;;;6.14;60.45;102871.69;5094715;27;47137;-68
2022/01/25 10:08:01;;;;;;;;;71.50;51.75;;;;;6.04;61.48;102873.63;5095222;27;45380;-67
2022/01/25 10:10:28;;;;;;;;;59.25;49.00;;;;;5.64;60.60;102813.78;5113975;27;45666;-66
2022/01/25 10:12:56;;;;;;;;;69.25;52.00;;;;;6.04;60.95;102872.72;5100511;27;45640;-67
2022/01/25 10:15:26;;;;;;;;;64.75;49.00;;;;;6.06;60.70;102866.72;5109671;27;45557;-67
2022/01/25 10:17:52;;;;;;;;;64.25;49.75;;;;;6.04;60.60;102867.41;5105812;27;45416;-66
2022/01/25 10:20:36;;;;;;;;;69.75;52.75;;;;;5.95;60.71;102872.88;5113693;27;45562;-67
2022/01/25 10:23:09;;;;;;;;;74.75;50.75;;;;;6.05;60.99;102877.22;5101013;27;45449;-66
2022/01/25 10:25:43;;;;;;;;;71.75;51.25;;;;;6.09;60.66;102880.22;5087395;27;48273;-67
2022/01/25 10:28:12;;;;;;;;;66.25;49.50;;;;;6.09;60.62;102888.19;5114407;27;45392;-67
2022/01/25 10:30:50;;;;;;;;;85.00;57.75;;;;;6.18;60.71;102882.66;5116941;27;45549;-67
2022/01/25 10:33:27;;;;;;;;;67.25;48.00;;;;;6.26;60.56;102883.28;5110973;27;45528;-66
2022/01/25 10:35:54;;;;;;;;;63.50;51.50;;;;;6.32;59.94;102886.44;5105834;27;46466;-67
2022/01/25 10:38:27;;;;;;;;;62.50;48.75;;;;;6.31;60.24;102881.91;5116876;27;45452;-66
2022/01/25 10:40:58;;;;;;;;;75.75;52.00;;;;;6.31;60.09;102884.56;5116647;27;45382;-67
2022/01/25 10:43:25;;;;;;;;;76.75;55.00;;;;;6.35;60.40;102886.66;5105139;27;45471;-68
2022/01/25 10:46:06;;;;;;;;;79.75;57.75;;;;;6.36;59.81;102890.25;5109199;27;45685;-66
2022/01/25 10:48:31;;;;;;;;;69.75;50.00;;;;;6.27;59.93;102893.09;5106924;27;45356;-68
2022/01/25 10:51:07;;;;;;;;;62.75;48.00;;;;;6.15;60.66;102879.78;5115650;27;45580;-65
2022/01/25 10:53:32;;;;;;;;;67.50;48.00;;;;;6.02;60.38;102856.69;5105558;27;45425;-66
2022/01/25 10:56:01;;;;;;;;;66.00;45.25;;;;;6.08;60.06;102842.94;5107778;27;46205;-65
2022/01/25 10:58:28;;;;;;;;;62.25;46.25;;;;;6.06;60.47;102852.53;5110845;27;45352;-67
2022/01/25 11:00:54;;;;;;;;;70.75;50.00;;;;;5.99;60.62;102848.47;5102929;27;45489;-66
2022/01/25 11:03:32;;;;;;;;;54.00;40.00;;;;;6.04;60.42;102867.41;5102776;27;45325;-67
2022/01/25 11:06:08;;;;;;;;;74.25;56.50;;;;;6.21;60.66;102880.25;5106232;27;46615;-67
2022/01/25 11:08:37;;;;;;;;;69.25;50.50;;;;;6.13;61.01;102856.59;5109976;27;45643;-66
2022/01/25 11:11:03;;;;;;;;;75.00;54.25;;;;;6.28;60.78;102865.75;5097490;27;45444;-66
2022/01/25 11:16:00;;;;;;;;;76.50;51.25;;;;;6.41;60.22;102871.19;5096934;27;45496;-66
2022/01/25 11:18:26;;;;;;;;;68.25;49.00;;;;;6.42;59.37;102862.44;5097101;27;45418;-68
2022/01/25 11:20:53;;;;;;;;;59.75;44.75;;;;;6.51;60.00;102880.78;5096735;27;45445;-68
2022/01/25 11:23:19;;;;;;;;;70.00;53.00;;;;;6.48;60.12;102863.72;5096860;27;45441;-67
2022/01/25 11:25:48;;;;;;;;;70.50;51.25;;;;;6.60;59.61;102877.91;5096737;27;46116;-68
2022/01/25 11:28:14;;;;;;;;;64.50;49.75;;;;;6.46;59.66;102845.91;5097041;27;45370;-67
2022/01/25 11:30:42;;;;;;;;;73.00;50.25;;;;;6.43;59.39;102851.03;5097370;27;45450;-68
2022/01/25 11:33:09;;;;;;;;;80.75;55.00;;;;;6.45;59.64;102875.00;5096660;27;45526;-68
2022/01/25 11:35:36;;;;;;;;;67.50;51.00;;;;;6.34;60.16;102866.22;5099106;27;46171;-66
2022/01/25 11:38:03;;;;;;;;;67.25;47.75;;;;;6.42;59.99;102875.72;5115721;27;45332;-66
2022/01/25 11:40:33;;;;;;;;;73.75;55.00;;;;;6.43;59.90;102872.25;5107116;27;45687;-71
2022/01/25 11:43:06;;;;;;;;;76.50;57.50;;;;;6.52;59.99;102881.75;5096626;27;45341;-66
2022/01/25 11:45:34;;;;;;;;;65.75;51.50;;;;;6.43;59.56;102853.69;5096074;27;46103;-66
2022/01/25 11:48:00;;;;;;;;;74.25;53.25;;;;;6.55;59.57;102872.28;5096272;27;45608;-66
2022/01/25 11:50:31;;;;;;;;;68.25;51.50;;;;;6.58;59.22;102864.56;5105946;27;45313;-66
2022/01/25 11:53:05;;;;;;;;;64.25;52.50;;;;;6.60;59.27;102875.25;5116080;27;45550;-66
2022/01/25 11:55:41;;;;;;;;;73.00;51.00;;;;;6.70;59.69;102871.56;5115709;27;45609;-67
2022/01/25 11:58:09;;;;;;;;;72.75;50.00;;;;;6.74;59.19;102863.06;5115172;27;45531;-67
2022/01/25 12:00:44;;;;;;;;;68.25;52.25;;;;;6.78;58.92;102851.84;5096730;27;45497;-67
2022/01/25 12:03:30;;;;;;;;;76.75;55.75;;;;;6.81;58.92;102852.06;5109698;27;45539;-65
2022/01/25 12:06:07;;;;;;;;;72.25;52.50;;;;;6.69;58.99;102862.69;5115340;27;46001;-66
2022/01/25 12:09:08;;;;;;;;;74.00;54.25;;;;;6.75;59.09;102856.94;5115931;27;45474;-66
2022/01/25 12:11:30;;;;;;;;;77.00;55.75;;;;;6.72;59.00;102848.72;5114241;27;45549;-69
2022/01/25 12:14:23;;;;;;;;;74.50;53.00;;;;;6.80;58.58;102861.78;5108584;27;45489;-68
2022/01/25 12:17:02;;;;;;;;;67.00;49.00;;;;;6.68;58.84;102847.56;5095726;27;46123;-67
2022/01/25 12:19:30;;;;;;;;;67.25;49.00;;;;;6.68;58.75;102860.84;5095454;27;45433;-68
2022/01/25 12:21:59;;;;;;;;;63.50;51.25;;;;;6.74;59.30;102848.03;5095581;27;45305;-66
2022/01/25 12:24:50;;;;;;;;;69.75;49.75;;;;;6.72;58.88;102844.34;5096043;27;45568;-68
2022/01/25 12:27:27;;;;;;;;;72.00;50.50;;;;;6.75;59.02;102836.59;5110481;27;46347;-67
2022/01/25 12:30:01;;;;;;;;;75.75;54.25;;;;;6.86;58.74;102833.81;5115441;27;45695;-67
2022/01/25 12:32:36;;;;;;;;;72.25;51.00;;;;;6.81;59.23;102839.72;5095750;27;45504;-68
2022/01/25 12:35:06;;;;;;;;;63.75;50.75;;;;;6.85;58.56;102829.31;5093655;27;45709;-65
2022/01/25 12:37:53;;;;;;;;;73.25;54.75;;;;;6.78;58.69;102823.56;5095092;27;46131;-66
2022/01/25 12:40:25;;;;;;;;;65.25;47.75;;;;;6.87;58.57;102825.06;5109958;27;45611;-68
2022/01/25 12:42:55;;;;;;;;;63.75;49.75;;;;;6.91;58.52;102821.81;5115255;27;45360;-68
2022/01/25 12:45:22;;;;;;;;;74.25;53.75;;;;;7.00;58.02;102814.53;5115226;27;45614;-68
2022/01/25 12:47:55;;;;;;;;;67.25;51.00;;;;;7.03;58.13;102816.47;5114989;27;46310;-67
2022/01/25 12:50:21;;;;;;;;;66.25;49.25;;;;;7.00;58.13;102812.78;5109118;27;45379;-68
2022/01/25 12:52:48;;;;;;;;;74.25;52.00;;;;;6.70;58.03;102763.63;5114765;27;46066;-68
2022/01/25 12:55:15;;;;;;;;;76.50;53.00;;;;;6.99;57.94;102825.94;5115259;27;45478;-69
2022/01/25 12:57:48;;;;;;;;;78.50;52.00;;;;;6.81;57.98;102799.88;5091901;27;47208;-66
2022/01/25 13:00:15;;;;;;;;;68.50;52.75;;;;;6.90;58.35;102815.56;5110128;27;45487;-65
2022/01/25 13:02:41;;;;;;;;;73.75;52.50;;;;;6.82;58.46;102783.09;5108216;27;45383;-66
2022/01/25 13:05:16;;;;;;;;;68.75;51.50;;;;;7.08;57.99;102812.41;5088531;27;45841;-66
2022/01/25 13:07:42;;;;;;;;;62.50;48.00;;;;;7.06;57.37;102801.69;5105724;27;46154;-66
2022/01/25 13:10:10;;;;;;;;;65.50;51.50;;;;;7.10;56.86;102810.81;5113709;27;45436;-66
2022/01/25 13:12:54;;;;;;;;;76.75;51.75;;;;;6.91;57.60;102787.25;5100086;27;45518;-67
2022/01/25 13:16:07;;;;;;;;;75.00;54.00;;;;;7.05;58.04;102802.50;5105226;27;45559;-68